Home > Products > Valid Products > TAF

000
FTUS46 KLOX 251131
TAFVNY
TAF
KVNY 251131Z 2512/2612 VRB03KT P6SM BKN016
     FM251300 VRB03KT P6SM BKN015 OVC035
     FM251800 16006KT P6SM SCT025 OVC040
     FM252100 16006KT P6SM BKN050
     FM260200 VRB03KT P6SM SCT040
     FM260930 VRB03KT P6SM BKN040=



000
FTUS46 KLOX 251131
TAFSBP
TAF
KSBP 251131Z 2512/2612 VRB03KT P6SM OVC021
     FM251800 30008KT P6SM BKN025 OVC035
     FM252100 30012KT P6SM SCT030 BKN040
     FM260600 31006KT P6SM BKN015 OVC025
     FM260900 VRB03KT P6SM OVC015=



000
FTUS46 KLOX 251131
TAFSMX
TAF
KSMX 251131Z 2512/2612 VRB03KT P6SM OVC021
     FM251700 30006KT P6SM OVC025
     FM252100 31015KT P6SM SCT030 BKN040
     FM260200 30012KT P6SM BKN020 OVC030
     FM260600 31005KT P6SM BKN015 OVC025
     FM260900 VRB03KT P6SM OVC015=



000
FTUS46 KLOX 251131
TAFPRB
TAF
KPRB 251131Z 2512/2612 30006KT P6SM OVC025
     FM251800 30006KT P6SM SCT250
     FM252200 27015KT P6SM SCT250
     FM252300 30012KT P6SM SCT250
     FM260900 31005KT P6SM BKN015=



000
FTUS46 KLOX 251131
TAFBUR
TAF
KBUR 251131Z 2512/2612 VRB04KT P6SM BKN015 OVC035
     FM251800 17008KT P6SM SCT025 OVC040
     FM252100 19010KT P6SM BKN050
     FM260300 VRB03KT P6SM SCT050
     FM260900 VRB03KT P6SM BKN040=



000
FTUS46 KLOX 251131
TAFLGB
TAF
KLGB 251131Z 2512/2612 30006KT P6SM SCT040
     FM251300 VRB03KT P6SM BKN035
     FM251800 22010KT P6SM OVC035
     FM252100 22010KT P6SM SCT040
     FM260000 30010KT P6SM SCT040
     FM260500 VRB03KT P6SM BKN025
     FM260900 15005KT P6SM OVC025=



000
FTUS46 KLOX 251131
TAFWJF
TAF
KWJF 251131Z 2512/2612 23015KT P6SM SKC
     FM251600 23015G25KT P6SM SCT250
     FM252000 23025G35KT P6SM SCT250
     FM260300 25018KT P6SM SCT250=



000
FTUS46 KLOX 251131
TAFLAX
TAF
KLAX 251131Z 2512/2618 VRB04KT P6SM SCT040 SCT140
     FM251400 24006KT P6SM BKN025 BKN040
     FM252000 26015KT P6SM SCT030 BKN045
     FM260300 26010KT P6SM SCT250
     FM260800 26006KT P6SM BKN025
     FM261100 12006KT P6SM OVC025
     FM261700 23006KT P6SM BKN030=



000
FTUS46 KLOX 251131
TAFSBA
TAF
KSBA 251131Z 2512/2612 VRB03KT P6SM BKN025 OVC035
     FM251700 23006KT P6SM SCT025 BKN040
     FM252100 26012KT P6SM SCT250 WS010/34035KT
     FM260400 29014KT P6SM SCT250 WS010/25035KT
     FM260800 VRB03KT P6SM SCT250=



000
FTUS46 KLOX 251131
TAFPMD
TAF
KPMD 251131Z 2512/2612 23014KT P6SM SKC
     FM251800 25015G25KT P6SM SCT050
     FM252100 24020G30KT P6SM SCT050
     FM260300 25018KT P6SM SCT250=



000
FTUS46 KLOX 250954 AAA
TAFBUR
TAF AMD
KBUR 250954Z 2510/2606 VRB04KT P6SM BKN015
     FM251800 17008KT P6SM SCT025 OVC040
     FM252100 19010KT P6SM BKN050
     FM260300 VRB03KT P6SM SCT050=



000
FTUS46 KLOX 250808 AAA
TAFSMX
TAF AMD
KSMX 250808Z 2508/2606 VRB03KT P6SM SCT015
     FM251000 VRB03KT P6SM OVC015
     FM251700 30006KT P6SM OVC025
     FM252100 31015KT P6SM SCT025 SCT040
     FM260200 30012KT P6SM OVC015=



000
FTUS46 KLOX 250808 AAA
TAFLAX
TAF AMD
KLAX 250808Z 2508/2612 26006KT P6SM SCT020 BKN030
     FM251300 24006KT P6SM BKN025 BKN040
     FM252000 26015KT P6SM SCT030 BKN045
     FM260300 26010KT P6SM SCT250
     FM260800 26006KT P6SM BKN025=



000
FTUS46 KLOX 250505 AAA
TAFSBP
TAF AMD
KSBP 250505Z 2505/2524 VRB03KT P6SM BKN020 OVC030
     FM251800 30008KT P6SM BKN025 OVC035
     FM252100 30011KT P6SM SCT030 BKN040=



000
FTUS46 KLOX 250505 AAC
TAFSMX
TAF AMD
KSMX 250505Z 2505/2524 VRB03KT P6SM SCT015
     FM250800 VRB03KT P6SM OVC015
     FM251700 30006KT P6SM OVC020
     FM252100 31014KT P6SM SCT025 BKN040=



000
FTUS46 KLOX 250503 AAD
TAFLAX
TAF AMD
KLAX 250503Z 2505/2606 28008KT P6SM SCT015 SCT025
     FM250700 26006KT 5SM BR BKN015 OVC025
     FM251400 24006KT P6SM BKN020 BKN040
     FM252000 26015G20KT P6SM SCT030 BKN045
     FM260300 26013KT P6SM BKN040=



000
FTUS46 KLOX 241724
TAFSBA
TAF
KSBA 241724Z 2418/2518 23005KT P6SM SCT045
     FM242000 24008KT P6SM SCT045
     FM250100 27008KT P6SM BKN040
     FM250500 VRB03KT P6SM BKN080
     FM251000 VRB03KT P6SM BKN020 OVC050=



000
FTUS46 KLOX 241724
TAFSBP
TAF
KSBP 241724Z 2418/2518 VRB03KT P6SM BKN017 OVC027
     FM242000 30010KT P6SM SCT020 BKN040
     FM250200 31010KT P6SM BKN020 OVC040
     FM250700 VRB03KT P6SM VCSH BKN020 BKN050=



000
FTUS46 KLOX 241724
TAFLGB
TAF
KLGB 241724Z 2418/2518 15007KT P6SM BKN045
     FM242000 20010KT P6SM BKN050
     FM250100 27008KT P6SM OVC050
     FM250700 VRB03KT P6SM BKN020 BKN040=



000
FTUS46 KLOX 241724
TAFPMD
TAF
KPMD 241724Z 2418/2518 21018G23KT P6SM SKC
     FM242100 23022G32KT P6SM SCT050 BKN080
     FM250300 23015G22KT P6SM FEW060=



000
FTUS46 KLOX 241724
TAFVNY
TAF
KVNY 241724Z 2418/2518 18003KT P6SM SCT020 BKN035 OVC040
     FM242000 17010KT P6SM BKN050
     FM250300 13005KT P6SM BKN050
     FM250700 VRB03KT P6SM OVC040=



000
FTUS46 KLOX 241724
TAFSMX
TAF
KSMX 241724Z 2418/2518 27006KT P6SM SCT018 BKN025 OVC035
     FM241900 28006KT P6SM BKN020 BKN040
     FM242100 30012G22KT P6SM SCT040
     FM250300 30010KT P6SM OVC015
     FM250900 VRB03KT P6SM VCSH OVC015=



000
FTUS46 KLOX 241724
TAFLAX
TAF
KLAX 241724Z 2418/2524 25007KT P6SM SCT028 BKN050
     FM242100 25015G22KT P6SM BKN025 OVC040
     FM250300 25012KT P6SM BKN020 OVC040
     FM250900 25008KT 5SM BR BKN015 OVC025
     FM251400 24007KT P6SM BKN020 BKN050
     FM252000 26012KT P6SM BKN050=



000
FTUS46 KLOX 241724
TAFWJF
TAF
KWJF 241724Z 2418/2518 23020G25KT P6SM SKC
     FM242000 23025G35KT P6SM SCT050 BKN080
     FM250300 23015KT P6SM FEW060=



000
FTUS46 KLOX 241724
TAFPRB
TAF
KPRB 241724Z 2418/2518 00000KT P6SM OVC021
     FM241900 21012KT P6SM BKN035
     FM242200 21018G26KT P6SM BKN050
     FM250300 28015KT P6SM BKN050
     FM250800 29007KT P6SM BKN025 OVC040=



000
FTUS46 KLOX 241724
TAFBUR
TAF
KBUR 241724Z 2418/2518 14007KT P6SM BKN030 OVC045
     FM242000 19010KT P6SM BKN050
     FM250300 14006KT P6SM BKN050
     FM250800 VRB03KT P6SM OVC040=



000
FTUS46 KLOX 241540 AAA
TAFVNY
TAF AMD
KVNY 241540Z 2416/2512 VRB03KT P6SM FEW020 BKN040 OVC060
     FM242000 17010KT P6SM BKN050
     FM250300 13005KT P6SM BKN050
     FM250700 VRB03KT P6SM OVC040=



000
FTUS46 KLOX 241540 AAA
TAFLGB
TAF AMD
KLGB 241540Z 2416/2512 13004KT P6SM BKN023
     FM241700 19006KT P6SM SCT025 BKN040
     FM242000 23010KT P6SM BKN050
     FM250100 27008KT P6SM OVC050
     FM250700 VRB03KT P6SM BKN020 BKN040=



000
FTUS46 KLOX 241539 AAD
TAFLAX
TAF AMD
KLAX 241539Z 2416/2518 00000KT P6SM BKN020 BKN045
     FM242100 25015G22KT P6SM BKN025 OVC040
     FM250300 25012KT P6SM BKN020 OVC040
     FM250900 25008KT 5SM BR BKN015 OVC025
     FM251400 24007KT P6SM BKN020 BKN050=



000
FTUS46 KLOX 241453 AAA
TAFPRB
TAF AMD
KPRB 241453Z 2415/2512 34003KT P6SM OVC020
     FM241700 29006KT P6SM BKN050
     FM242100 21018G26KT P6SM BKN050
     FM250300 28015KT P6SM BKN050
     FM250800 29007KT P6SM BKN025 OVC040=



000
FTUS46 KLOX 241453 AAA
TAFSBP
TAF AMD
KSBP 241453Z 2415/2512 30003KT 4SM HZ FEW010 BKN017 OVC023
     FM241600 VRB03KT P6SM BKN015 OVC035
     FM242000 30010KT P6SM SCT020 BKN040
     FM250200 31010KT P6SM VCSH BKN020 OVC040
     FM250700 VRB03KT P6SM VCSH BKN020 BKN050=



000
FTUS46 KLOX 241452 AAC
TAFLAX
TAF AMD
KLAX 241452Z 2415/2518 04005KT P6SM FEW018 SCT022 BKN045
     FM241600 23006KT P6SM SCT025 BKN040
     FM242100 25015G22KT P6SM BKN025 OVC040
     FM250300 25012KT P6SM BKN020 OVC040
     FM250900 25008KT 5SM BR BKN015 OVC025
     FM251400 24007KT P6SM BKN020 BKN050=



000
FTUS46 KLOX 241452 AAA
TAFBUR
TAF AMD
KBUR 241452Z 2415/2512 12003KT P6SM SCT024 OVC050
     FM242000 19010KT P6SM BKN050
     FM250300 14006KT P6SM BKN050
     FM250800 VRB03KT P6SM OVC040=



000
FTUS46 KLOX 241244 AAB
TAFLAX
TAF AMD
KLAX 241244Z 2413/2518 VRB03KT P6SM SCT024 OVC050
     FM241600 23006KT P6SM SCT025 BKN040
     FM242100 25015G22KT P6SM BKN025 OVC040
     FM250300 25012KT P6SM BKN020 OVC040
     FM250900 25008KT 5SM BR BKN015 OVC025
     FM251400 24007KT P6SM BKN020 BKN050=



000
FTUS46 KLOX 241157 AAA
TAFLAX
TAF AMD
KLAX 241157Z 2412/2518 VRB03KT P6SM -SHRA BKN018 BKN028
     FM241600 23006KT P6SM SCT025 BKN040
     FM242100 25015G22KT P6SM BKN025 OVC040
     FM250300 25012KT P6SM BKN020 OVC040
     FM250900 25008KT 5SM BR BKN015 OVC025
     FM251400 24007KT P6SM BKN020 BKN050=



000
FTUS46 KLOX 241142
TAFLAX
TAF
KLAX 241142Z 2412/2518 VRB03KT P6SM SCT016 BKN035
     FM241600 23006KT P6SM SCT025 BKN040
     FM242100 25015G22KT P6SM BKN025 OVC040
     FM250300 25012KT P6SM BKN020 OVC040
     FM250900 25008KT 5SM BR BKN015 OVC025
     FM251400 24007KT P6SM BKN020 BKN050=



000
FTUS46 KLOX 241142
TAFPRB
TAF
KPRB 241142Z 2412/2512 23006KT P6SM OVC012
     FM241600 29006KT P6SM BKN015 BKN050
     FM242100 21018G26KT P6SM BKN050
     FM250300 28015KT P6SM BKN050
     FM250800 29007KT P6SM BKN025 OVC040=



000
FTUS46 KLOX 241142
TAFWJF
TAF
KWJF 241142Z 2412/2512 23015KT P6SM SKC
     FM241600 23020G30KT P6SM SCT050
     FM242000 23025G35KT P6SM SCT050 BKN080
     FM250300 23015KT P6SM BKN060=



000
FTUS46 KLOX 241142
TAFLGB
TAF
KLGB 241142Z 2412/2512 VRB03KT P6SM BKN040
     FM241700 19006KT P6SM SCT025 BKN040
     FM242000 23010KT P6SM BKN050
     FM250100 27008KT P6SM OVC050
     FM250700 VRB03KT P6SM BKN020 BKN040=



000
FTUS46 KLOX 241142
TAFBUR
TAF
KBUR 241142Z 2412/2512 VRB03KT P6SM OVC035
     FM241400 16008KT P6SM BKN025 OVC040
     FM242000 19010KT P6SM BKN050
     FM250300 14006KT P6SM BKN050
     FM250800 VRB03KT P6SM OVC040=



000
FTUS46 KLOX 241142
TAFSBA
TAF
KSBA 241142Z 2412/2512 VRB03KT P6SM BKN080
     FM241800 24010KT P6SM BKN020
     FM250100 27008KT P6SM BKN040
     FM250500 VRB03KT P6SM BKN080
     FM251000 VRB03KT P6SM BKN020 OVC050=



000
FTUS46 KLOX 241142
TAFVNY
TAF
KVNY 241142Z 2412/2512 VRB03KT P6SM BKN050
     FM241400 15008KT P6SM BKN025 OVC040
     FM242000 17010KT P6SM BKN050
     FM250300 13005KT P6SM BKN050
     FM250700 VRB03KT P6SM OVC040=



000
FTUS46 KLOX 241142
TAFSBP
TAF
KSBP 241142Z 2412/2512 VRB03KT P6SM OVC020
     FM241600 VRB03KT P6SM BKN015 OVC035
     FM242000 30010KT P6SM SCT020 BKN040
     FM250200 31010KT P6SM VCSH BKN020 OVC040
     FM250700 VRB03KT P6SM VCSH BKN020 BKN050=



000
FTUS46 KLOX 241142
TAFPMD
TAF
KPMD 241142Z 2412/2512 22015KT P6SM SKC
     FM241600 23015G25KT P6SM SCT050
     FM242100 23022G32KT P6SM SCT050 BKN080
     FM250300 23015G22KT P6SM BKN060=



000
FTUS46 KLOX 241142
TAFSMX
TAF
KSMX 241142Z 2412/2512 VRB03KT P6SM BKN006 OVC015
     FM241600 VRB03KT P6SM BKN012 OVC025
     FM241900 28006KT P6SM BKN020 BKN040
     FM242100 30012G22KT P6SM SCT040
     FM250300 30010KT P6SM VCSH OVC015
     FM250900 VRB03KT P6SM VCSH OVC015=



000
FTUS46 KLOX 240824 AAA
TAFSMX
TAF AMD
KSMX 240824Z 2408/2506 VRB03KT P6SM BKN008 OVC015
     FM241500 VRB03KT P6SM BKN012 BKN020 OVC035
     FM241800 28006KT P6SM SCT025 BKN040
     FM242100 30012G22KT P6SM SCT040
     FM250300 30010KT P6SM OVC015=



000
FTUS46 KLOX 240605 AAA
TAFSBP
TAF AMD
KSBP 240605Z 2406/2506 30006KT P6SM OVC020
     FM240800 VRB03KT P6SM OVC018
     FM241400 VRB03KT P6SM BKN020 OVC035
     FM241800 30010KT P6SM SCT025 BKN040
     FM250200 31010KT P6SM OVC100=



000
FTUS46 KLOX 240532 CCA
TAFPRB
TAF COR
KPRB 240532Z 2406/2506 20012KT P6SM SCT025 BKN040
     FM241200 VRB06KT P6SM BKN025 OVC035
     FM241600 VRB06KT P6SM BKN035 BKN050
     FM242100 21018G26KT P6SM BKN050
     FM250300 28015KT P6SM BKN050=



000
FTUS46 KLOX 240532 CCA
TAFWJF
TAF COR
KWJF 240532Z 2406/2506 22015KT P6SM SCT050
     FM241600 23020G30KT P6SM BKN100
     FM242000 23025G35KT P6SM BKN100
     FM250300 23018KT P6SM BKN100=



000
FTUS46 KLOX 240532 CCA
TAFSMX
TAF COR
KSMX 240532Z 2406/2506 30008KT P6SM BKN025
     FM241000 VRB03KT P6SM BKN015
     FM241300 VRB03KT P6SM SCT010 BKN020 OVC035
     FM241800 28006KT P6SM SCT025 BKN040
     FM242100 30012G22KT P6SM SCT040
     FM250300 30010KT P6SM OVC015=



000
FTUS46 KLOX 240530
TAFVNY
TAF
KVNY 240530Z 2406/2506 VRB03KT P6SM BKN080
     FM241400 15008KT P6SM BKN025 OVC040
     FM242000 17010KT P6SM BKN050=



000
FTUS46 KLOX 240417 AAB
TAFSMX
TAF AMD
KSMX 240417Z 2404/2424 30008KT P6SM OVC100
     FM240800 30006KT P6SM BKN015
     FM241100 VRB03KT P6SM SCT010 BKN020 OVC035
     FM241600 28006KT P6SM SCT025 BKN040
     FM242100 30014G20KT P6SM SCT040=



000
FTUS46 KLOX 240220 AAA
TAFSMX
TAF AMD
KSMX 240220Z 2402/2424 30008KT P6SM SCT020
     FM240400 30006KT P6SM BKN015
     FM241100 VRB03KT P6SM SCT010 BKN020 OVC035
     FM241600 28006KT P6SM SCT025 BKN040
     FM242100 30014G20KT P6SM SCT040=



000
FTUS46 KLOX 240003 CCA
TAFWJF
TAF COR
KWJF 240003Z 2400/2424 23022G32KT P6SM SKC
     FM240300 25017KT P6SM SCT050
     FM241600 23019G27KT P6SM SKC
     FM242000 23024G32KT P6SM SKC=



000
FTUS46 KLOX 240002 CCA
TAFPMD
TAF COR
KPMD 240002Z 2400/2424 24021G27KT P6SM SKC
     FM240300 25016KT P6SM SCT050
     FM241600 23017G25KT P6SM SKC
     FM242100 23024G32KT P6SM SKC=



000
FTUS46 KLOX 232359
TAFSBP
TAF
KSBP 232359Z 2400/2424 31017G25KT P6SM SKC
     FM240300 31012KT P6SM SCT025
     FM240500 30008KT P6SM SCT020
     FM240700 VRB03KT P6SM BKN015
     FM241400 15004KT P6SM BKN020 OVC035
     FM241800 29010KT P6SM SCT025 BKN040=



000
FTUS46 KLOX 232359
TAFSBA
TAF
KSBA 232359Z 2400/2424 25008KT P6SM SKC
     FM240200 34008KT P6SM SKC WS015/34035KT
      TEMPO 2403/2405 33015G25KT
     FM240700 VRB03KT P6SM SKC
     FM241300 15005KT P6SM BKN017
     FM241800 24010KT P6SM SCT025=



000
FTUS46 KLOX 232359
TAFSMX
TAF
KSMX 232359Z 2400/2424 30018G25KT P6SM SKC
     FM240300 30012KT P6SM SCT025
     FM240500 30008KT P6SM SCT020
     FM240600 30006KT P6SM BKN015
     FM241100 VRB03KT P6SM SCT010 BKN020 OVC035
     FM241600 28006KT P6SM SCT025 BKN040
     FM242100 30014G20KT P6SM SCT040=



000
FTUS46 KLOX 232359
TAFPMD
TAF
KPMD 232359Z 2400/2424 24021G27KT P6SM SKC
     FM240400 25015KT P6SM SKC=



000
FTUS46 KLOX 232359
TAFPRB
TAF
KPRB 232359Z 2400/2424 22015G25KT P6SM SKC
     FM240330 30012KT P6SM SCT025 BKN040
     FM240900 VRB06KT P6SM BKN015 OVC035
     FM242100 21018G26KT P6SM SCT040=



000
FTUS46 KLOX 232359
TAFVNY
TAF
KVNY 232359Z 2400/2424 18010KT P6SM BKN045
     FM240800 VRB03KT P6SM BKN020 OVC035
     FM241400 13005KT P6SM BKN025 OVC040
     FM241700 14008KT P6SM SCT025 BKN040
     FM242000 17012KT P6SM FEW025 BKN040=



000
FTUS46 KLOX 232359
TAFLGB
TAF
KLGB 232359Z 2400/2424 21008KT P6SM SKC
     FM240200 29010KT P6SM SCT040
     FM240500 17007KT P6SM BKN020
     FM241200 14005KT P6SM BKN020 OVC035
     FM241600 19007KT P6SM SCT025 BKN040
     FM242000 19012KT P6SM FEW030 BKN045=



000
FTUS46 KLOX 232359
TAFWJF
TAF
KWJF 232359Z 2400/2424 23022G32KT P6SM SKC
     FM240400 25015KT P6SM SKC=



000
FTUS46 KLOX 232332
TAFLAX
TAF
KLAX 232332Z 2400/2506 26012KT P6SM SCT040
     FM240500 26007KT P6SM BKN020
     FM241200 11006KT P6SM BKN020 OVC035
     FM241600 23007KT P6SM SCT025 BKN040
     FM242000 25012G18KT P6SM FEW030 BKN045
     FM250200 25010KT P6SM BKN025=



000
FTUS46 KLOX 232332
TAFBUR
TAF
KBUR 232332Z 2400/2424 19011KT P6SM SCT045
     FM240200 16008KT P6SM BKN045
     FM240800 VRB03KT P6SM BKN020 OVC035
     FM241400 15006KT P6SM BKN025 OVC040
     FM241700 16010KT P6SM SCT025 BKN040
     FM242000 19012KT P6SM FEW025 BKN040=



000
FTUS46 KLOX 232227 AAD
TAFLAX
TAF AMD
KLAX 232227Z 2322/2424 24012KT P6SM FEW040 SCT140
     FM232300 26012KT P6SM SCT040
     FM240400 26007KT P6SM BKN025
     FM241400 13006KT P6SM OVC035
     FM241700 21007KT P6SM BKN040
     FM242100 24010KT P6SM BKN045=



000
FTUS46 KLOX 232227 AAB
TAFWJF
TAF AMD
KWJF 232227Z 2322/2418 23022G32KT P6SM SKC
     FM240400 25015KT P6SM SKC=



000
FTUS46 KLOX 231901 AAA
TAFLAX
TAF AMD
KLAX 231901Z 2319/2424 14013KT P6SM BKN040 BKN140
     FM232000 26015KT P6SM SCT035
     FM240400 26007KT P6SM BKN025
     FM241400 13006KT P6SM OVC035
     FM241700 21007KT P6SM BKN040
     FM242100 24010KT P6SM BKN045=



000
FTUS46 KLOX 231522 AAA
TAFVNY
TAF AMD
KVNY 231522Z 2315/2412 16006KT P6SM BKN017
     FM231630 16006KT P6SM SCT017
     FM231800 17010KT P6SM SKC
     FM240400 VRB03KT P6SM SKC
     FM241000 VRB03KT P6SM BKN015=



000
FTUS46 KLOX 231314 AAA
TAFSMX
TAF AMD
KSMX 231314Z 2313/2412 VRB03KT P6SM SCT010
     FM231600 30008KT P6SM SKC
     FM232000 30018G25KT P6SM SKC
     FM240300 30008KT P6SM BKN025
     FM240800 VRB03KT P6SM OVC015=



000
FTUS46 KLOX 231314 AAA
TAFLGB
TAF AMD
KLGB 231314Z 2313/2412 VRB03KT P6SM BKN020
     FM231700 19009KT P6SM SKC
     FM240000 29010KT P6SM SKC
     FM240400 VRB03KT P6SM SKC
     FM240700 VRB03KT P6SM OVC015
     FM241000 VRB03KT P6SM OVC022=



000
FTUS46 KLOX 231236 AAA
TAFLAX
TAF AMD
KLAX 231236Z 2313/2418 VRB03KT P6SM BKN015
     FM231600 25008KT P6SM SKC
     FM232100 26015KT P6SM SKC
     FM240500 26007KT P6SM BKN015
     FM241000 13006KT P6SM OVC022
     FM241700 21007KT P6SM BKN030=



000
FTUS46 KLOX 231133
TAFLAX
TAF
KLAX 231133Z 2312/2418 VRB03KT P6SM SCT015
     FM231700 25008KT P6SM SKC
     FM232100 26015KT P6SM SKC
     FM240500 26007KT P6SM BKN015
     FM241000 13006KT P6SM OVC022
     FM241700 21007KT P6SM BKN030=



000
FTUS46 KLOX 231133
TAFBUR
TAF
KBUR 231133Z 2312/2412 VRB03KT P6SM SKC
     FM231800 17010KT P6SM SKC
     FM240400 VRB03KT P6SM SKC
     FM241000 VRB03KT P6SM BKN015=



000
FTUS46 KLOX 231133
TAFLGB
TAF
KLGB 231133Z 2312/2412 VRB03KT P6SM BKN015
     FM231700 19009KT P6SM SKC
     FM240000 29010KT P6SM SKC
     FM240400 VRB03KT P6SM SKC
     FM240700 VRB03KT P6SM OVC015
     FM241000 VRB03KT P6SM OVC022=



000
FTUS46 KLOX 231133
TAFSBA
TAF
KSBA 231133Z 2312/2412 VRB03KT P6SM SKC
     FM231700 16007KT P6SM SKC
     FM232000 25008KT P6SM SKC
     FM240200 VRB03KT P6SM SKC
     FM241100 VRB03KT P6SM OVC025=



000
FTUS46 KLOX 231133
TAFSMX
TAF
KSMX 231133Z 2312/2412 VRB03KT P6SM BKN012
     FM231600 30008KT P6SM SKC
     FM232000 30018G25KT P6SM SKC
     FM240300 30008KT P6SM BKN025
     FM240800 VRB03KT P6SM OVC015=



000
FTUS46 KLOX 231133
TAFPRB
TAF
KPRB 231133Z 2312/2412 VRB03KT P6SM SKC
     FM231600 33006KT P6SM SKC
     FM232200 22015G25KT P6SM SKC
     FM240200 30012KT P6SM SKC
     FM240800 30006KT P6SM BKN015=



000
FTUS46 KLOX 231133
TAFVNY
TAF
KVNY 231133Z 2312/2412 VRB03KT P6SM SKC
     FM231800 17010KT P6SM SKC
     FM240400 VRB03KT P6SM SKC
     FM241000 VRB03KT P6SM BKN015=



000
FTUS46 KLOX 231133
TAFPMD
TAF
KPMD 231133Z 2312/2412 25007KT P6SM SKC
     FM231700 25015G23KT P6SM SKC
     FM232100 25022G32KT P6SM SKC
     FM240400 25015KT P6SM SKC=



000
FTUS46 KLOX 231133
TAFWJF
TAF
KWJF 231133Z 2312/2412 24012KT P6SM SKC
     FM231700 25015G23KT P6SM SKC
     FM232100 25022G32KT P6SM SKC
     FM240400 25015KT P6SM SKC=



000
FTUS46 KLOX 231133
TAFSBP
TAF
KSBP 231133Z 2312/2412 VRB03KT P6SM SKC
     FM231600 31008KT P6SM SKC
     FM232000 31017G25KT P6SM SKC
     FM240300 30008KT P6SM BKN025
     FM240900 VRB03KT P6SM OVC015=



000
FTUS46 KLOX 230836 AAA
TAFSMX
TAF AMD
KSMX 230836Z 2309/2406 30006KT P6SM BKN015
     FM231700 30008KT P6SM SKC
     FM232000 30018G25KT P6SM SKC
     FM240300 30008KT P6SM SKC=



000
FTUS46 KLOX 230645 AAA
TAFSBP
TAF AMD
KSBP 230645Z 2307/2406 31006KT P6SM BKN015
     FM231600 31008KT P6SM SKC
     FM232000 31017G25KT P6SM SKC
     FM240300 30008KT P6SM BKN025=



000
FTUS46 KLOX 230525
TAFLAX
TAF
KLAX 230525Z 2306/2412 25007KT P6SM SKC
     FM231300 VRB03KT P6SM BKN012
     FM231700 25008KT P6SM SCT015
     FM232100 26015KT P6SM SKC
     FM240400 26007KT P6SM BKN015
     FM240900 VRB03KT P6SM BKN020=



000
FTUS46 KLOX 230525
TAFBUR
TAF
KBUR 230525Z 2306/2406 VRB03KT P6SM SKC
     FM231800 17010KT P6SM SKC
     FM240400 VRB03KT P6SM SKC=



000
FTUS46 KLOX 230525
TAFSBP
TAF
KSBP 230525Z 2306/2406 31006KT P6SM SKC
     FM231100 VRB03KT P6SM BKN010
     FM231600 31008KT P6SM SKC
     FM232000 31017G25KT P6SM SKC
     FM240300 30008KT P6SM BKN025=



000
FTUS46 KLOX 230525
TAFVNY
TAF
KVNY 230525Z 2306/2406 VRB03KT P6SM SKC
     FM231800 17010KT P6SM SKC
     FM240400 VRB03KT P6SM SKC=



000
FTUS46 KLOX 230525
TAFPRB
TAF
KPRB 230525Z 2306/2406 32010KT P6SM SKC
      TEMPO 2306/2309 5SM FU
     FM231300 VRB03KT P6SM BKN010
     FM231600 33006KT P6SM SKC
     FM232200 21015G25KT P6SM SKC
     FM240200 30012KT P6SM SKC=



000
FTUS46 KLOX 230525
TAFPMD
TAF
KPMD 230525Z 2306/2406 24007KT P6SM SKC
     FM231700 25015G23KT P6SM SKC
     FM232100 25022G32KT P6SM SKC
     FM240400 25015KT P6SM SKC=



000
FTUS46 KLOX 230525
TAFLGB
TAF
KLGB 230525Z 2306/2406 VRB03KT P6SM SKC
     FM231200 VRB03KT P6SM BKN015
     FM231700 19009KT P6SM SKC
     FM240000 29010KT P6SM SKC
     FM240400 VRB03KT P6SM SKC=



000
FTUS46 KLOX 230525
TAFSBA
TAF
KSBA 230525Z 2306/2406 34006KT P6SM SKC WS010/35030KT
     FM231100 VRB03KT P6SM SKC
     FM231700 16007KT P6SM SKC
     FM232000 25008KT P6SM SKC
     FM240200 VRB03KT P6SM SKC=



000
FTUS46 KLOX 230525
TAFSMX
TAF
KSMX 230525Z 2306/2406 30006KT P6SM SKC
     FM231000 VRB03KT P6SM BKN012
     FM231700 30008KT P6SM SKC
     FM232000 30018G25KT P6SM SKC
     FM240300 30008KT P6SM SKC=



000
FTUS46 KLOX 230525
TAFWJF
TAF
KWJF 230525Z 2306/2406 24007KT P6SM SKC
     FM231700 25015G23KT P6SM SKC
     FM232100 25022G32KT P6SM SKC
     FM240400 25015KT P6SM SKC=



000
FTUS46 KLOX 230420 AAA
TAFPMD
TAF AMD
KPMD 230420Z 2304/2324 24010KT P6SM SKC
     FM231700 23016G24KT P6SM SCT250
     FM232100 23021G29KT P6SM SCT250=



000
FTUS46 KLOX 230258 AAA
TAFLAX
TAF AMD
KLAX 230258Z 2303/2406 26010KT P6SM FEW040
     FM230400 25007KT P6SM SKC
     FM231300 VRB03KT P6SM BKN012
     FM231700 24007KT P6SM SCT017 SCT250
     FM232100 26014KT P6SM SCT250
     FM240200 26010KT P6SM BKN012=



000
FTUS46 KLOX 230241 AAA
TAFPRB
TAF AMD
KPRB 230241Z 2303/2324 32010KT P6SM FEW250
     FM231300 VRB03KT P6SM BKN010
     FM231600 33005KT P6SM SKC
     FM232200 21015G25KT P6SM SKC=



000
FTUS46 KLOX 222355
TAFLGB
TAF
KLGB 222355Z 2300/2324 29015G20KT P6SM SKC
     FM230300 29008KT P6SM SKC
     FM231100 VRB03KT P6SM BKN015
     FM231700 19009KT P6SM SCT250=



000
FTUS46 KLOX 222355
TAFVNY
TAF
KVNY 222355Z 2300/2324 25009KT P6SM FEW040
     FM230400 12004KT P6SM SKC
     FM231300 VRB03KT 6SM HZ FEW010
     FM231800 15011KT P6SM SCT250=



000
FTUS46 KLOX 222355
TAFPRB
TAF
KPRB 222355Z 2300/2324 21012KT P6SM FEW250
     FM230300 30010KT P6SM FEW250
     FM231300 VRB03KT P6SM BKN010
     FM231600 33005KT P6SM SKC
     FM232200 21015G25KT P6SM SKC=



000
FTUS46 KLOX 222355
TAFPMD
TAF
KPMD 222355Z 2300/2324 24016G24KT P6SM SKC
     FM230300 23010KT P6SM SKC
     FM231700 23016G24KT P6SM SCT250
     FM232100 23021G29KT P6SM SCT250=



000
FTUS46 KLOX 222355
TAFWJF
TAF
KWJF 222355Z 2300/2324 23018G26KT P6SM SKC
     FM230300 25012KT P6SM SKC
     FM231600 24016G24KT P6SM SCT250
     FM232000 23022G30KT P6SM SCT250=



000
FTUS46 KLOX 222355
TAFSBA
TAF
KSBA 222355Z 2300/2324 26010G16KT P6SM SKC
     FM230300 34006KT P6SM SKC
      TEMPO 2303/2305 33015G25KT
     FM230800 03005KT P6SM SKC
     FM231700 16007KT P6SM SCT250
     FM232200 25010KT P6SM SCT250=



000
FTUS46 KLOX 222355
TAFSMX
TAF
KSMX 222355Z 2300/2324 31018G26KT P6SM SKC
     FM230200 30012KT P6SM SKC
     FM230400 30008KT P6SM SKC
     FM230800 VRB03KT P6SM BKN012
     FM231700 30008KT P6SM SKC
     FM232000 30018G26KT P6SM SKC=



000
FTUS46 KLOX 222355
TAFSBP
TAF
KSBP 222355Z 2300/2324 31018G26KT P6SM FEW250
     FM230200 31012KT P6SM FEW250
     FM230400 31008KT P6SM SKC
     FM231000 VRB03KT P6SM BKN010
     FM231600 31008KT P6SM SKC
     FM232000 31016G24KT P6SM SKC=



000
FTUS46 KLOX 222329
TAFLAX
TAF
KLAX 222329Z 2300/2406 26015G20KT P6SM FEW040
     FM230400 25007KT P6SM SKC
     FM231100 VRB03KT P6SM BKN012
     FM231700 24007KT P6SM SCT017
     FM232100 26014KT P6SM SKC
     FM240200 26010KT P6SM BKN012=



000
FTUS46 KLOX 222329
TAFBUR
TAF
KBUR 222329Z 2300/2324 19009KT P6SM FEW040
     FM230400 14005KT P6SM SKC
     FM231300 VRB03KT 6SM HZ SKC
     FM231800 17011KT P6SM SKC=



000
FTUS46 KLOX 222202 AAA
TAFWJF
TAF AMD
KWJF 222202Z 2222/2318 VRB06KT P6SM SKC
     FM222300 25020G28KT P6SM SKC
     FM230500 25014KT P6SM SKC=



000
FTUS46 KLOX 222200 AAA
TAFPRB
TAF AMD
KPRB 222200Z 2222/2318 21012KT P6SM SKC
     FM230000 30012KT P6SM SKC
     FM230700 VRB03KT P6SM SKC
     FM231300 VRB03KT P6SM BKN010
     FM231600 VRB03KT P6SM SKC=



000
FTUS46 KLOX 221725
TAFLGB
TAF
KLGB 221725Z 2218/2318 20010KT P6SM SKC
     FM230000 29012KT P6SM SKC
     FM230600 VRB03KT P6SM SKC
     FM231000 VRB03KT P6SM BKN015
     FM231700 20007KT P6SM SKC=



000
FTUS46 KLOX 221452 AAB
TAFLAX
TAF AMD
KLAX 221452Z 2215/2318 06005KT P6SM SKC
     FM221700 25008KT P6SM SKC
     FM222000 25015KT P6SM SKC
     FM230400 25008KT P6SM SKC
     FM230900 11006KT P6SM OVC015
     FM231700 13007KT P6SM BKN025=



    US Dept of Commerce
    National Oceanic and Atmospheric Administration
    National Weather Service
    1325 East West Highway
    Silver Spring, MD 20910
    Page Author: NWS Internet Services Team
Disclaimer
Information Quality
Credits
Glossary
Privacy Policy
Freedom of Information Act (FOIA)
About Us
Career Opportunities